createdAt,value
2023-03-06T00:00:49.144Z,8.73
2023-03-06T00:03:18.360Z,8.63
2023-03-06T00:05:47.817Z,8.48
2023-03-06T00:08:16.981Z,12.50
2023-03-06T00:10:47.382Z,10.50
2023-03-06T00:13:19.025Z,9.73
2023-03-06T00:15:49.565Z,15.05
2023-03-06T00:18:18.750Z,11.20
2023-03-06T00:20:47.865Z,10.32
2023-03-06T00:23:16.942Z,10.52
2023-03-06T00:25:47.757Z,8.80
2023-03-06T00:28:17.827Z,12.00
2023-03-06T00:30:47.584Z,9.82
2023-03-06T00:33:16.671Z,9.20
2023-03-06T00:35:45.776Z,7.78
2023-03-06T00:38:15.025Z,14.27
2023-03-06T00:40:44.335Z,10.57
2023-03-06T00:43:15.220Z,11.30
2023-03-06T00:45:44.615Z,9.35
2023-03-06T00:48:13.677Z,7.28
2023-03-06T00:50:42.827Z,10.43
2023-03-06T00:53:13.380Z,10.90
2023-03-06T00:55:46.131Z,10.48
2023-03-06T00:58:16.689Z,10.60
2023-03-06T01:00:48.522Z,10.48
2023-03-06T01:03:17.992Z,10.88
2023-03-06T01:05:47.128Z,11.65
2023-03-06T01:08:16.164Z,11.27
2023-03-06T01:10:45.318Z,10.43
2023-03-06T01:13:14.409Z,14.40
2023-03-06T01:15:44.790Z,9.75
2023-03-06T01:18:13.911Z,10.97
2023-03-06T01:20:43.239Z,11.27
2023-03-06T01:23:12.276Z,16.35
2023-03-06T01:25:41.273Z,16.40
2023-03-06T01:28:10.332Z,14.30
2023-03-06T01:30:39.420Z,13.90
2023-03-06T01:33:10.042Z,14.25
2023-03-06T01:35:39.700Z,16.40
2023-03-06T01:38:08.866Z,12.88
2023-03-06T01:40:39.432Z,14.65
2023-03-06T01:43:13.029Z,18.40
2023-03-06T01:46:23.719Z,15.13
2023-03-06T01:48:57.753Z,18.27
2023-03-06T01:51:31.337Z,15.45
2023-03-06T01:54:03.533Z,18.50
2023-03-06T01:56:32.991Z,14.75
2023-03-06T01:59:02.536Z,18.08
2023-03-06T02:01:33.443Z,16.17
2023-03-06T02:04:04.082Z,15.65
2023-03-06T02:06:34.865Z,16.45
2023-03-06T02:09:07.640Z,15.45
2023-03-06T02:14:05.633Z,14.05
2023-03-06T02:16:35.372Z,12.35
2023-03-06T02:19:08.707Z,16.50
2023-03-06T02:21:39.062Z,13.07
2023-03-06T02:24:29.122Z,16.35
2023-03-06T02:27:00.777Z,16.05
2023-03-06T02:29:31.262Z,12.05
2023-03-06T02:32:03.360Z,13.82
2023-03-06T02:34:55.111Z,14.88
2023-03-06T02:37:25.762Z,12.70
2023-03-06T02:40:02.995Z,16.20
2023-03-06T02:42:33.454Z,16.35
2023-03-06T02:45:04.957Z,15.25
2023-03-06T02:47:34.008Z,15.23
2023-03-06T02:50:03.058Z,13.02
2023-03-06T02:52:34.261Z,14.88
2023-03-06T02:55:05.242Z,14.38
2023-03-06T02:57:35.665Z,14.52
2023-03-06T03:02:34.684Z,13.10
2023-03-06T03:05:03.846Z,14.38
2023-03-06T03:07:33.443Z,14.55
2023-03-06T03:10:03.395Z,13.10
2023-03-06T03:12:33.839Z,14.13
2023-03-06T03:15:04.444Z,18.25
2023-03-06T03:17:38.487Z,17.88
2023-03-06T03:20:10.371Z,21.02
2023-03-06T03:22:39.441Z,16.77
2023-03-06T03:25:09.244Z,20.13
2023-03-06T03:27:39.017Z,18.73
2023-03-06T03:30:11.924Z,19.45
2023-03-06T03:32:41.696Z,17.13
2023-03-06T03:35:12.357Z,21.17
2023-03-06T03:37:42.940Z,22.00
2023-03-06T03:40:13.188Z,17.05
2023-03-06T03:42:42.215Z,18.33
2023-03-06T03:45:13.953Z,17.02
2023-03-06T03:50:14.388Z,16.58
2023-03-06T03:52:43.918Z,16.92
2023-03-06T03:55:14.138Z,19.87
2023-03-06T03:57:44.873Z,18.92
2023-03-06T04:00:18.065Z,19.67
2023-03-06T04:02:59.524Z,21.88
2023-03-06T04:05:36.126Z,18.77
2023-03-06T04:08:08.029Z,15.15
2023-03-06T04:10:39.984Z,15.25
2023-03-06T04:13:11.014Z,18.90
2023-03-06T04:15:45.637Z,15.02
2023-03-06T04:18:18.128Z,13.55
2023-03-06T04:20:48.652Z,14.38
2023-03-06T04:23:18.735Z,15.10
2023-03-06T04:25:48.464Z,13.43
2023-03-06T04:28:18.324Z,16.23
2023-03-06T04:30:48.917Z,11.35
2023-03-06T04:33:19.364Z,14.98
2023-03-06T04:35:48.530Z,11.13
2023-03-06T04:38:24.674Z,11.40
2023-03-06T04:40:53.789Z,9.60
2023-03-06T04:43:22.898Z,10.60
2023-03-06T04:45:53.408Z,10.32
2023-03-06T04:48:22.387Z,8.70
2023-03-06T04:50:51.412Z,11.93
2023-03-06T04:53:21.427Z,10.30
2023-03-06T04:55:50.427Z,14.38
2023-03-06T04:58:19.669Z,13.88
2023-03-06T05:00:48.795Z,10.32
2023-03-06T05:03:19.225Z,10.55
2023-03-06T05:05:48.322Z,13.75
2023-03-06T05:08:18.353Z,15.02
2023-03-06T05:10:47.747Z,10.55
2023-03-06T05:13:16.760Z,13.00
2023-03-06T05:15:45.750Z,10.43
2023-03-06T05:18:14.741Z,10.15
2023-03-06T05:20:45.273Z,9.73
2023-03-06T05:23:14.558Z,14.93
2023-03-06T05:25:44.212Z,9.77
2023-03-06T05:28:13.249Z,13.63
2023-03-06T05:30:42.302Z,12.80
2023-03-06T05:33:11.643Z,16.23
2023-03-06T05:35:40.721Z,13.23
2023-03-06T05:38:11.206Z,15.73
2023-03-06T05:40:42.301Z,10.80
2023-03-06T05:43:12.025Z,13.55
2023-03-06T05:45:41.859Z,10.68
2023-03-06T05:48:12.175Z,10.10
2023-03-06T05:50:41.322Z,10.23
2023-03-06T05:53:12.418Z,12.25
2023-03-06T05:58:10.424Z,13.25
2023-03-06T06:00:39.407Z,11.20
2023-03-06T06:03:08.427Z,10.27
2023-03-06T06:05:40.577Z,9.35
2023-03-06T06:08:13.046Z,13.13
2023-03-06T06:10:42.076Z,11.40
2023-03-06T06:13:12.131Z,12.85
2023-03-06T06:15:41.178Z,10.18
2023-03-06T06:18:10.298Z,9.50
2023-03-06T06:20:39.758Z,11.15
2023-03-06T06:23:08.966Z,9.80
2023-03-06T06:25:39.694Z,9.10
2023-03-06T06:28:08.849Z,6.32
2023-03-06T06:30:38.335Z,6.07
2023-03-06T06:33:07.479Z,8.90
2023-03-06T06:35:38.033Z,7.63
2023-03-06T06:38:07.073Z,7.80
2023-03-06T06:40:36.588Z,8.10
2023-03-06T06:43:09.377Z,7.63
2023-03-06T06:45:39.693Z,12.02
2023-03-06T06:48:08.821Z,6.60
2023-03-06T06:50:37.905Z,14.50
2023-03-06T06:53:07.043Z,9.75
2023-03-06T06:55:36.067Z,8.15
2023-03-06T06:58:05.400Z,9.43
2023-03-06T07:00:35.817Z,11.13
2023-03-06T07:03:05.073Z,12.13
2023-03-06T07:05:36.763Z,12.43
2023-03-06T07:08:05.951Z,12.77
2023-03-06T07:10:35.717Z,15.15
2023-03-06T07:13:04.796Z,11.30
2023-03-06T07:15:35.290Z,14.02
2023-03-06T07:18:04.363Z,14.32
2023-03-06T07:20:33.381Z,14.15
2023-03-06T07:23:02.448Z,9.35
2023-03-06T07:25:31.507Z,11.48
2023-03-06T07:28:07.757Z,8.88
2023-03-06T07:30:38.340Z,9.35
2023-03-06T07:33:07.382Z,8.13
2023-03-06T07:35:36.877Z,12.57
2023-03-06T07:38:05.926Z,6.65
2023-03-06T07:40:35.026Z,8.35
2023-03-06T07:43:18.605Z,5.35
2023-03-06T07:45:59.687Z,8.32
2023-03-06T07:48:29.000Z,6.88
2023-03-06T07:50:59.628Z,7.43
2023-03-06T07:53:29.004Z,8.50
2023-03-06T07:55:58.195Z,5.90
2023-03-06T07:58:29.678Z,8.25
2023-03-06T08:01:04.948Z,7.28
2023-03-06T08:03:34.402Z,6.45
2023-03-06T08:06:08.464Z,12.80
2023-03-06T08:08:39.341Z,6.75
2023-03-06T08:11:08.933Z,9.00
2023-03-06T08:13:39.645Z,8.60
2023-03-06T08:16:10.289Z,12.82
2023-03-06T08:18:39.798Z,7.07
2023-03-06T08:21:10.571Z,7.03
2023-03-06T08:23:40.432Z,8.80
2023-03-06T08:26:12.277Z,10.75
2023-03-06T08:28:42.194Z,9.07
2023-03-06T08:31:14.301Z,11.02
2023-03-06T08:33:43.362Z,9.40
2023-03-06T08:36:12.385Z,9.43
2023-03-06T08:38:41.448Z,10.90
2023-03-06T08:41:10.500Z,10.35
2023-03-06T08:43:40.302Z,9.90
2023-03-06T08:46:09.295Z,10.15
2023-03-06T08:48:40.071Z,8.23
2023-03-06T08:51:10.258Z,7.93
2023-03-06T08:53:44.000Z,6.30
2023-03-06T08:56:20.679Z,10.82
2023-03-06T08:58:50.210Z,6.53
2023-03-06T09:01:22.493Z,5.68
2023-03-06T09:03:55.576Z,4.05
2023-03-06T09:06:25.756Z,5.55
2023-03-06T09:08:55.862Z,7.00
2023-03-06T09:11:27.707Z,5.35
2023-03-06T09:13:57.056Z,6.38
2023-03-06T09:16:26.641Z,5.25
2023-03-06T09:18:57.959Z,6.00
2023-03-06T09:23:57.383Z,8.02
2023-03-06T09:26:39.444Z,7.28
2023-03-06T09:29:12.887Z,7.30
2023-03-06T09:31:42.094Z,8.27
2023-03-06T09:34:12.547Z,8.57
2023-03-06T09:36:55.514Z,9.52
2023-03-06T09:39:26.269Z,8.27
2023-03-06T09:41:56.945Z,6.43
2023-03-06T09:44:28.666Z,6.65
2023-03-06T09:47:27.570Z,7.30
2023-03-06T09:50:15.401Z,7.22
2023-03-06T09:52:53.582Z,6.32
2023-03-06T09:55:27.188Z,3.42
2023-03-06T09:58:00.715Z,3.97
2023-03-06T10:00:35.447Z,4.60
2023-03-06T10:03:17.219Z,2.53
2023-03-06T10:05:51.257Z,3.33
2023-03-06T10:08:26.224Z,3.45
2023-03-06T10:11:02.591Z,2.78
2023-03-06T10:13:42.357Z,4.60
2023-03-06T10:16:24.555Z,3.38
2023-03-06T10:18:54.982Z,3.15
2023-03-06T10:21:39.718Z,6.17
2023-03-06T10:24:20.439Z,6.88
2023-03-06T10:26:53.957Z,4.35
2023-03-06T10:29:56.403Z,4.47
2023-03-06T10:32:47.455Z,4.35
2023-03-06T10:35:20.666Z,6.35
2023-03-06T10:37:51.266Z,7.18
2023-03-06T10:40:22.548Z,10.18
2023-03-06T10:45:48.513Z,10.95
2023-03-06T10:48:21.997Z,7.10
2023-03-06T10:50:56.598Z,8.00
2023-03-06T10:53:29.143Z,9.38
2023-03-06T10:56:00.788Z,14.27
2023-03-06T10:58:32.325Z,12.82
2023-03-06T11:01:05.023Z,10.70
2023-03-06T11:03:34.423Z,13.70
2023-03-06T11:06:13.258Z,13.60
2023-03-06T11:08:45.642Z,12.27
2023-03-06T11:11:22.429Z,14.38
2023-03-06T11:14:00.180Z,13.02
2023-03-06T11:16:31.559Z,10.68
2023-03-06T11:19:04.065Z,11.00
2023-03-06T11:21:35.067Z,11.02
2023-03-06T11:24:09.826Z,10.55
2023-03-06T11:26:51.138Z,11.20
2023-03-06T11:29:38.866Z,11.45
2023-03-06T11:32:15.979Z,11.10
2023-03-06T11:34:50.702Z,12.75
2023-03-06T11:37:31.753Z,11.50
2023-03-06T11:40:13.062Z,8.43
2023-03-06T11:42:45.524Z,8.48
2023-03-06T11:45:26.138Z,7.53
2023-03-06T11:48:05.005Z,6.93
2023-03-06T11:50:37.998Z,7.75
2023-03-06T11:53:12.395Z,7.72
2023-03-06T11:55:56.151Z,6.78
2023-03-06T11:59:02.294Z,9.50
2023-03-06T12:01:36.864Z,5.90
2023-03-06T12:04:33.042Z,6.25
2023-03-06T12:07:13.105Z,7.38
2023-03-06T12:09:47.760Z,5.47
2023-03-06T12:12:33.136Z,7.38
2023-03-06T12:15:22.320Z,5.82
2023-03-06T12:18:14.551Z,8.27
2023-03-06T12:20:58.008Z,4.10
2023-03-06T12:23:49.216Z,6.40
2023-03-06T12:26:34.372Z,6.50
2023-03-06T12:29:17.730Z,6.30
2023-03-06T12:32:02.487Z,7.85
2023-03-06T12:34:47.727Z,4.95
2023-03-06T12:37:24.054Z,6.47
2023-03-06T12:40:11.096Z,8.32
2023-03-06T12:43:04.613Z,6.30
2023-03-06T12:45:37.115Z,5.53
2023-03-06T12:48:12.798Z,6.70
2023-03-06T12:50:44.576Z,5.57
2023-03-06T12:53:17.407Z,5.88
2023-03-06T12:55:48.559Z,4.43
2023-03-06T12:58:36.102Z,5.95
2023-03-06T13:01:10.724Z,4.72
2023-03-06T13:03:57.539Z,5.22
2023-03-06T13:06:56.016Z,5.88
2023-03-06T13:09:32.861Z,4.22
2023-03-06T13:12:17.312Z,7.70
2023-03-06T13:14:58.686Z,5.82
2023-03-06T13:17:35.612Z,5.45
2023-03-06T13:20:29.300Z,4.82
2023-03-06T13:22:59.010Z,5.78
2023-03-06T13:25:50.670Z,6.72
2023-03-06T13:28:40.081Z,8.93
2023-03-06T13:31:21.361Z,8.65
2023-03-06T13:33:59.592Z,13.95
2023-03-06T13:36:30.644Z,11.65
2023-03-06T13:39:08.637Z,9.77
2023-03-06T13:41:58.608Z,5.70
2023-03-06T13:44:51.158Z,7.00
2023-03-06T13:48:21.083Z,9.50
2023-03-06T13:50:47.403Z,3.80
2023-03-06T13:53:47.783Z,2.00
2023-03-06T13:56:45.127Z,7.18
2023-03-06T13:59:42.463Z,4.13
2023-03-06T14:02:32.784Z,2.65
2023-03-06T14:05:03.668Z,4.00
2023-03-06T14:07:36.424Z,4.30
2023-03-06T14:10:22.796Z,5.28
2023-03-06T14:13:07.767Z,6.35
2023-03-06T14:15:44.520Z,3.55
2023-03-06T14:18:25.120Z,5.38
2023-03-06T14:20:58.780Z,6.10
2023-03-06T14:23:33.437Z,10.75
2023-03-06T14:26:15.256Z,8.05
2023-03-06T14:28:46.185Z,3.72
2023-03-06T14:31:19.140Z,6.40
2023-03-06T14:33:53.337Z,9.27
2023-03-06T14:36:24.309Z,5.43
2023-03-06T14:38:57.959Z,5.18
2023-03-06T14:41:28.695Z,6.20
2023-03-06T14:44:19.716Z,5.00
2023-03-06T14:46:50.492Z,5.78
2023-03-06T14:49:20.920Z,3.50
2023-03-06T14:51:52.097Z,4.82
2023-03-06T14:54:25.804Z,4.72
2023-03-06T14:56:58.273Z,4.65
2023-03-06T14:59:30.145Z,5.43
2023-03-06T15:02:02.332Z,5.05
2023-03-06T15:04:36.734Z,6.18
2023-03-06T15:07:11.360Z,4.95
2023-03-06T15:09:46.537Z,5.45
2023-03-06T15:12:38.721Z,6.95
2023-03-06T15:15:29.728Z,5.10
2023-03-06T15:18:01.841Z,5.95
2023-03-06T15:20:46.671Z,8.15
2023-03-06T15:23:19.303Z,3.88
2023-03-06T15:25:58.688Z,6.43
2023-03-06T15:28:34.574Z,6.43
2023-03-06T15:31:20.333Z,4.88
2023-03-06T15:34:23.655Z,5.05
2023-03-06T15:36:57.681Z,2.75
2023-03-06T15:39:29.233Z,4.20
2023-03-06T15:42:00.174Z,8.77
2023-03-06T15:44:31.542Z,4.45
2023-03-06T15:47:08.711Z,6.63
2023-03-06T15:49:38.775Z,8.38
2023-03-06T15:52:08.403Z,10.00
2023-03-06T15:54:38.050Z,12.50
2023-03-06T15:57:19.341Z,12.65
2023-03-06T15:59:48.413Z,6.40
2023-03-06T16:02:19.716Z,7.55
2023-03-06T16:04:49.581Z,6.93
2023-03-06T16:07:18.980Z,9.75
2023-03-06T16:09:48.041Z,12.98
2023-03-06T16:12:20.412Z,14.05
2023-03-06T16:14:50.469Z,15.23
2023-03-06T16:17:22.308Z,13.35
2023-03-06T16:19:51.461Z,26.10
2023-03-06T16:22:20.552Z,13.13
2023-03-06T16:24:49.701Z,16.17
2023-03-06T16:27:20.348Z,10.60
2023-03-06T16:29:49.399Z,10.63
2023-03-06T16:32:18.436Z,7.03
2023-03-06T16:34:47.549Z,6.50
2023-03-06T16:37:18.365Z,4.85
2023-03-06T16:39:47.394Z,11.10
2023-03-06T16:42:17.701Z,8.02
2023-03-06T16:44:48.136Z,6.67
2023-03-06T16:47:17.820Z,6.23
2023-03-06T16:49:46.986Z,6.70
2023-03-06T16:52:16.340Z,4.22
2023-03-06T16:54:45.510Z,6.15
2023-03-06T16:57:15.874Z,4.32
2023-03-06T16:59:45.185Z,6.60
2023-03-06T17:02:15.766Z,8.35
2023-03-06T17:04:45.003Z,12.77
2023-03-06T17:07:14.050Z,16.38
2023-03-06T17:09:43.334Z,8.88
2023-03-06T17:12:12.361Z,8.68
2023-03-06T17:14:41.361Z,14.77
2023-03-06T17:17:13.025Z,8.15
2023-03-06T17:19:47.263Z,6.55
2023-03-06T17:22:18.144Z,5.28
2023-03-06T17:24:50.033Z,5.68
2023-03-06T17:27:20.143Z,6.35
2023-03-06T17:29:49.429Z,8.60
2023-03-06T17:32:18.777Z,6.45
2023-03-06T17:34:49.206Z,20.63
2023-03-06T17:37:18.414Z,27.63
2023-03-06T17:39:47.625Z,29.52
2023-03-06T17:42:17.490Z,29.50
2023-03-06T17:44:46.586Z,50.15
2023-03-06T17:47:15.689Z,49.70
2023-03-06T17:49:44.919Z,19.13
2023-03-06T17:52:15.485Z,22.55
2023-03-06T17:54:44.924Z,13.60
2023-03-06T17:57:15.521Z,12.15
2023-03-06T17:59:48.514Z,27.35
2023-03-06T18:02:20.046Z,11.98
2023-03-06T18:04:49.318Z,13.27
2023-03-06T18:07:19.853Z,16.25
2023-03-06T18:09:49.078Z,14.38
2023-03-06T18:12:18.462Z,15.63
2023-03-06T18:14:48.684Z,22.15
2023-03-06T18:17:17.827Z,22.00
2023-03-06T18:19:46.967Z,28.10
2023-03-06T18:22:16.016Z,28.48
2023-03-06T18:24:50.435Z,29.02
2023-03-06T18:27:20.821Z,32.05
2023-03-06T18:29:52.212Z,37.50
2023-03-06T18:32:21.283Z,28.35
2023-03-06T18:34:50.911Z,19.15
2023-03-06T18:37:20.048Z,40.38
2023-03-06T18:39:50.469Z,30.00
2023-03-06T18:42:19.655Z,41.35
2023-03-06T18:44:48.903Z,105.40
2023-03-06T18:47:18.141Z,50.92
2023-03-06T18:49:47.249Z,72.38
2023-03-06T18:52:16.317Z,126.85
2023-03-06T18:54:45.769Z,106.75
2023-03-06T18:57:18.808Z,29.90
2023-03-06T18:59:48.402Z,84.10
2023-03-06T19:02:17.596Z,38.90
2023-03-06T19:04:46.888Z,21.17
2023-03-06T19:07:16.191Z,28.75
2023-03-06T19:09:54.800Z,21.83
2023-03-06T19:12:25.581Z,30.48
2023-03-06T19:14:54.603Z,30.85
2023-03-06T19:17:25.011Z,24.40
2023-03-06T19:19:55.127Z,24.40
2023-03-06T19:22:26.370Z,9.63
2023-03-06T19:24:55.413Z,12.77
2023-03-06T19:27:25.907Z,18.45
2023-03-06T19:29:54.920Z,23.80
2023-03-06T19:32:24.041Z,12.70
2023-03-06T19:34:54.517Z,14.00
2023-03-06T19:37:23.909Z,17.30
2023-03-06T19:39:53.018Z,27.73
2023-03-06T19:42:22.046Z,20.63
2023-03-06T19:44:52.477Z,15.48
2023-03-06T19:47:21.511Z,18.67
2023-03-06T19:49:50.641Z,17.38
2023-03-06T19:52:19.744Z,15.45
2023-03-06T19:54:48.715Z,15.70
2023-03-06T19:57:17.916Z,21.13
2023-03-06T19:59:51.296Z,17.60
2023-03-06T20:02:26.622Z,16.90
2023-03-06T20:04:56.182Z,22.55
2023-03-06T20:07:25.739Z,15.35
2023-03-06T20:09:57.209Z,17.58
2023-03-06T20:12:26.304Z,13.52
2023-03-06T20:14:55.465Z,19.17
2023-03-06T20:17:26.058Z,18.90
2023-03-06T20:19:55.265Z,18.92
2023-03-06T20:22:24.341Z,16.73
2023-03-06T20:24:53.555Z,18.50
2023-03-06T20:27:22.545Z,19.70
2023-03-06T20:29:51.569Z,11.68
2023-03-06T20:32:20.678Z,16.65
2023-03-06T20:34:51.161Z,21.67
2023-03-06T20:37:20.244Z,29.20
2023-03-06T20:39:49.419Z,17.88
2023-03-06T20:42:18.724Z,15.98
2023-03-06T20:44:49.248Z,16.05
2023-03-06T20:47:18.536Z,18.42
2023-03-06T20:49:47.799Z,15.70
2023-03-06T20:52:19.641Z,19.83
2023-03-06T20:54:48.715Z,8.80
2023-03-06T20:57:17.818Z,11.75
2023-03-06T20:59:46.878Z,20.23
2023-03-06T21:02:16.024Z,13.90
2023-03-06T21:04:45.125Z,12.80
2023-03-06T21:07:14.227Z,13.38
2023-03-06T21:09:44.648Z,15.82
2023-03-06T21:12:13.681Z,10.07
2023-03-06T21:14:42.752Z,8.40
2023-03-06T21:17:13.840Z,18.20
2023-03-06T21:22:11.905Z,15.75
2023-03-06T21:24:41.082Z,14.25
2023-03-06T21:27:11.519Z,11.93
2023-03-06T21:29:40.596Z,13.93
2023-03-06T21:32:09.655Z,14.90
2023-03-06T21:34:38.714Z,13.65
2023-03-06T21:37:07.808Z,13.93
2023-03-06T21:39:37.334Z,14.35
2023-03-06T21:42:06.578Z,13.52
2023-03-06T21:44:37.088Z,14.10
2023-03-06T21:47:06.784Z,16.63
2023-03-06T21:49:35.799Z,16.10
2023-03-06T21:52:05.118Z,30.63
2023-03-06T21:54:34.265Z,15.70
2023-03-06T21:57:03.253Z,15.55
2023-03-06T21:59:32.254Z,16.13
2023-03-06T22:02:02.659Z,22.88
2023-03-06T22:04:31.813Z,15.27
2023-03-06T22:07:01.015Z,13.80
2023-03-06T22:09:30.000Z,13.63
2023-03-06T22:11:59.139Z,15.13
2023-03-06T22:14:28.265Z,14.13
2023-03-06T22:16:57.521Z,13.45
2023-03-06T22:19:28.365Z,18.42
2023-03-06T22:21:57.479Z,15.43
2023-03-06T22:24:26.589Z,12.95
2023-03-06T22:26:55.692Z,18.95
2023-03-06T22:29:24.887Z,15.40
2023-03-06T22:31:54.100Z,18.40
2023-03-06T22:34:23.158Z,20.67
2023-03-06T22:36:53.659Z,17.30
2023-03-06T22:39:22.747Z,15.35
2023-03-06T22:41:51.865Z,14.70
2023-03-06T22:44:21.228Z,11.00
2023-03-06T22:46:51.808Z,12.48
2023-03-06T22:49:20.931Z,12.00
2023-03-06T22:51:50.092Z,13.25
2023-03-06T22:54:20.626Z,8.50
2023-03-06T22:56:49.700Z,15.23
2023-03-06T22:59:18.709Z,12.55
2023-03-06T23:01:47.788Z,12.68
2023-03-06T23:04:17.000Z,9.85
2023-03-06T23:06:47.032Z,11.88
2023-03-06T23:09:18.295Z,7.07
2023-03-06T23:12:09.041Z,14.82
2023-03-06T23:14:56.799Z,9.15
2023-03-06T23:17:44.264Z,11.60
2023-03-06T23:20:31.808Z,12.68
2023-03-06T23:23:19.570Z,9.25
2023-03-06T23:25:48.967Z,11.85
2023-03-06T23:28:19.943Z,7.78
2023-03-06T23:30:49.188Z,11.77
2023-03-06T23:33:18.298Z,13.07
2023-03-06T23:35:47.410Z,10.40
2023-03-06T23:38:16.580Z,11.05
2023-03-06T23:40:58.488Z,14.77
2023-03-06T23:43:29.276Z,9.52
2023-03-06T23:45:58.610Z,9.48
2023-03-06T23:48:27.914Z,18.80
2023-03-06T23:50:57.245Z,9.52
2023-03-06T23:53:26.577Z,9.13
2023-03-06T23:55:55.643Z,11.23
2023-03-06T23:58:24.674Z,5.25
